sensor_id;sensor_type;location;lat;lon;timestamp;temperature;humidity
22526;DHT22;11429;50.842;4.386;2022-12-29T00:00:09;11.70;99.90
22526;DHT22;11429;50.842;4.386;2022-12-29T00:02:35;11.70;99.90
22526;DHT22;11429;50.842;4.386;2022-12-29T00:05:01;11.70;99.90
22526;DHT22;11429;50.842;4.386;2022-12-29T00:07:27;11.60;99.90
22526;DHT22;11429;50.842;4.386;2022-12-29T00:09:53;11.60;99.90
22526;DHT22;11429;50.842;4.386;2022-12-29T00:12:18;11.60;99.90
22526;DHT22;11429;50.842;4.386;2022-12-29T00:14:44;11.60;99.90
22526;DHT22;11429;50.842;4.386;2022-12-29T00:17:28;11.60;99.90
22526;DHT22;11429;50.842;4.386;2022-12-29T00:19:56;11.60;99.90
22526;DHT22;11429;50.842;4.386;2022-12-29T00:22:40;11.70;99.90
22526;DHT22;11429;50.842;4.386;2022-12-29T00:25:24;11.80;99.90
22526;DHT22;11429;50.842;4.386;2022-12-29T00:28:09;11.80;99.90
22526;DHT22;11429;50.842;4.386;2022-12-29T00:30:53;11.80;99.90
22526;DHT22;11429;50.842;4.386;2022-12-29T00:33:37;11.80;99.90
22526;DHT22;11429;50.842;4.386;2022-12-29T00:36:54;11.80;99.90
22526;DHT22;11429;50.842;4.386;2022-12-29T00:39:19;11.80;99.90
22526;DHT22;11429;50.842;4.386;2022-12-29T00:42:05;11.80;99.90
22526;DHT22;11429;50.842;4.386;2022-12-29T00:45:03;11.90;99.90
22526;DHT22;11429;50.842;4.386;2022-12-29T00:47:29;12.00;99.90
22526;DHT22;11429;50.842;4.386;2022-12-29T00:49:55;12.00;99.90
22526;DHT22;11429;50.842;4.386;2022-12-29T00:52:21;12.00;99.90
22526;DHT22;11429;50.842;4.386;2022-12-29T00:54:47;12.10;99.90
22526;DHT22;11429;50.842;4.386;2022-12-29T00:57:12;12.00;99.90
22526;DHT22;11429;50.842;4.386;2022-12-29T00:59:39;12.00;99.90
22526;DHT22;11429;50.842;4.386;2022-12-29T01:02:05;12.00;99.90
22526;DHT22;11429;50.842;4.386;2022-12-29T01:04:31;12.00;99.90
22526;DHT22;11429;50.842;4.386;2022-12-29T01:06:57;12.00;99.90
22526;DHT22;11429;50.842;4.386;2022-12-29T01:09:23;12.00;99.90
22526;DHT22;11429;50.842;4.386;2022-12-29T01:12:08;12.00;99.90
22526;DHT22;11429;50.842;4.386;2022-12-29T01:14:35;11.90;99.90
22526;DHT22;11429;50.842;4.386;2022-12-29T01:17:01;11.90;99.90
22526;DHT22;11429;50.842;4.386;2022-12-29T01:19:27;11.90;99.90
22526;DHT22;11429;50.842;4.386;2022-12-29T01:21:53;11.90;99.90
22526;DHT22;11429;50.842;4.386;2022-12-29T01:24:19;11.80;99.90
22526;DHT22;11429;50.842;4.386;2022-12-29T01:26:46;11.70;99.90
22526;DHT22;11429;50.842;4.386;2022-12-29T01:29:12;11.50;99.90
22526;DHT22;11429;50.842;4.386;2022-12-29T01:31:38;11.40;99.90
22526;DHT22;11429;50.842;4.386;2022-12-29T01:34:04;11.30;99.90
22526;DHT22;11429;50.842;4.386;2022-12-29T01:36:30;11.30;99.90
22526;DHT22;11429;50.842;4.386;2022-12-29T01:38:56;11.20;99.90
22526;DHT22;11429;50.842;4.386;2022-12-29T01:41:22;11.20;99.90
22526;DHT22;11429;50.842;4.386;2022-12-29T01:43:51;11.20;99.90
22526;DHT22;11429;50.842;4.386;2022-12-29T01:51:31;11.10;99.90
22526;DHT22;11429;50.842;4.386;2022-12-29T01:54:00;11.10;99.90
22526;DHT22;11429;50.842;4.386;2022-12-29T01:56:28;11.20;99.90
22526;DHT22;11429;50.842;4.386;2022-12-29T01:59:03;11.20;99.90
22526;DHT22;11429;50.842;4.386;2022-12-29T02:01:30;11.20;99.90
22526;DHT22;11429;50.842;4.386;2022-12-29T02:03:56;11.30;99.90
22526;DHT22;11429;50.842;4.386;2022-12-29T02:06:26;11.30;99.90
22526;DHT22;11429;50.842;4.386;2022-12-29T02:08:55;11.30;99.90
22526;DHT22;11429;50.842;4.386;2022-12-29T02:11:23;11.40;99.90
22526;DHT22;11429;50.842;4.386;2022-12-29T02:13:49;11.40;99.90
22526;DHT22;11429;50.842;4.386;2022-12-29T02:35:37;10.60;99.90
22526;DHT22;11429;50.842;4.386;2022-12-29T02:40:51;10.40;99.90
22526;DHT22;11429;50.842;4.386;2022-12-29T02:43:25;10.50;99.90
22526;DHT22;11429;50.842;4.386;2022-12-29T02:45:56;10.40;99.90
22526;DHT22;11429;50.842;4.386;2022-12-29T02:51:02;10.70;99.90
22526;DHT22;11429;50.842;4.386;2022-12-29T02:53:31;10.60;99.90
22526;DHT22;11429;50.842;4.386;2022-12-29T02:56:16;10.50;99.90
22526;DHT22;11429;50.842;4.386;2022-12-29T02:58:41;10.40;99.90
22526;DHT22;11429;50.842;4.386;2022-12-29T03:10:23;10.20;99.90
22526;DHT22;11429;50.842;4.386;2022-12-29T03:15:47;10.30;99.90
22526;DHT22;11429;50.842;4.386;2022-12-29T03:23:34;10.00;99.90
22526;DHT22;11429;50.842;4.386;2022-12-29T03:26:04;9.90;99.90
22526;DHT22;11429;50.842;4.386;2022-12-29T03:29:04;10.00;99.90
22526;DHT22;11429;50.842;4.386;2022-12-29T03:31:31;10.10;99.90
22526;DHT22;11429;50.842;4.386;2022-12-29T03:33:57;10.20;99.90
22526;DHT22;11429;50.842;4.386;2022-12-29T03:36:30;10.20;99.90
22526;DHT22;11429;50.842;4.386;2022-12-29T03:39:10;10.30;99.90
22526;DHT22;11429;50.842;4.386;2022-12-29T03:41:38;10.30;99.90
22526;DHT22;11429;50.842;4.386;2022-12-29T03:44:08;10.30;99.90
22526;DHT22;11429;50.842;4.386;2022-12-29T03:46:34;10.20;99.90
22526;DHT22;11429;50.842;4.386;2022-12-29T03:49:00;10.20;99.90
22526;DHT22;11429;50.842;4.386;2022-12-29T03:51:25;10.20;99.90
22526;DHT22;11429;50.842;4.386;2022-12-29T03:53:51;10.20;99.90
22526;DHT22;11429;50.842;4.386;2022-12-29T03:56:17;10.30;99.90
22526;DHT22;11429;50.842;4.386;2022-12-29T03:58:42;10.50;99.90
22526;DHT22;11429;50.842;4.386;2022-12-29T04:01:08;10.50;99.90
22526;DHT22;11429;50.842;4.386;2022-12-29T04:03:34;10.50;99.90
22526;DHT22;11429;50.842;4.386;2022-12-29T04:05:59;10.40;99.90
22526;DHT22;11429;50.842;4.386;2022-12-29T04:08:25;10.50;99.90
22526;DHT22;11429;50.842;4.386;2022-12-29T04:10:51;10.40;99.90
22526;DHT22;11429;50.842;4.386;2022-12-29T04:13:16;10.40;99.90
22526;DHT22;11429;50.842;4.386;2022-12-29T04:15:43;10.40;99.90
22526;DHT22;11429;50.842;4.386;2022-12-29T04:18:10;10.30;99.90
22526;DHT22;11429;50.842;4.386;2022-12-29T04:20:36;10.20;99.90
22526;DHT22;11429;50.842;4.386;2022-12-29T04:23:20;10.40;99.90
22526;DHT22;11429;50.842;4.386;2022-12-29T04:25:46;10.20;99.90
22526;DHT22;11429;50.842;4.386;2022-12-29T04:28:15;10.30;99.90
22526;DHT22;11429;50.842;4.386;2022-12-29T04:30:42;10.30;99.90
22526;DHT22;11429;50.842;4.386;2022-12-29T04:33:08;10.30;99.90
22526;DHT22;11429;50.842;4.386;2022-12-29T04:35:34;10.20;99.90
22526;DHT22;11429;50.842;4.386;2022-12-29T04:38:00;10.00;99.90
22526;DHT22;11429;50.842;4.386;2022-12-29T04:40:26;10.00;99.90
22526;DHT22;11429;50.842;4.386;2022-12-29T04:42:51;10.00;99.90
22526;DHT22;11429;50.842;4.386;2022-12-29T04:45:17;10.20;99.90
22526;DHT22;11429;50.842;4.386;2022-12-29T04:47:43;10.20;99.90
22526;DHT22;11429;50.842;4.386;2022-12-29T04:50:09;10.20;99.90
22526;DHT22;11429;50.842;4.386;2022-12-29T04:52:35;10.30;99.90
22526;DHT22;11429;50.842;4.386;2022-12-29T04:55:00;10.40;99.90
22526;DHT22;11429;50.842;4.386;2022-12-29T04:57:26;10.50;99.90
22526;DHT22;11429;50.842;4.386;2022-12-29T04:59:52;10.50;99.90
22526;DHT22;11429;50.842;4.386;2022-12-29T05:02:18;10.50;99.90
22526;DHT22;11429;50.842;4.386;2022-12-29T05:04:44;10.50;99.90
22526;DHT22;11429;50.842;4.386;2022-12-29T05:07:10;10.50;99.90
22526;DHT22;11429;50.842;4.386;2022-12-29T05:09:35;10.50;99.90
22526;DHT22;11429;50.842;4.386;2022-12-29T05:12:01;10.40;99.90
22526;DHT22;11429;50.842;4.386;2022-12-29T05:14:27;10.50;99.90
22526;DHT22;11429;50.842;4.386;2022-12-29T05:16:53;10.60;99.90
22526;DHT22;11429;50.842;4.386;2022-12-29T05:19:19;10.50;99.90
22526;DHT22;11429;50.842;4.386;2022-12-29T05:21:45;10.50;99.90
22526;DHT22;11429;50.842;4.386;2022-12-29T05:24:10;10.50;99.90
22526;DHT22;11429;50.842;4.386;2022-12-29T05:26:36;10.60;99.90
22526;DHT22;11429;50.842;4.386;2022-12-29T05:29:02;10.70;99.90
22526;DHT22;11429;50.842;4.386;2022-12-29T05:31:27;10.70;99.90
22526;DHT22;11429;50.842;4.386;2022-12-29T05:33:53;10.70;99.90
22526;DHT22;11429;50.842;4.386;2022-12-29T05:36:19;10.70;99.90
22526;DHT22;11429;50.842;4.386;2022-12-29T05:38:45;10.70;99.90
22526;DHT22;11429;50.842;4.386;2022-12-29T05:41:10;10.60;99.90
22526;DHT22;11429;50.842;4.386;2022-12-29T05:43:36;10.60;99.90
22526;DHT22;11429;50.842;4.386;2022-12-29T05:46:03;10.70;99.90
22526;DHT22;11429;50.842;4.386;2022-12-29T05:48:32;10.70;99.90
22526;DHT22;11429;50.842;4.386;2022-12-29T05:51:09;10.70;99.90
22526;DHT22;11429;50.842;4.386;2022-12-29T05:53:35;10.80;99.90
22526;DHT22;11429;50.842;4.386;2022-12-29T05:56:01;10.70;99.90
22526;DHT22;11429;50.842;4.386;2022-12-29T05:58:26;10.80;99.90
22526;DHT22;11429;50.842;4.386;2022-12-29T06:00:52;10.70;99.90
22526;DHT22;11429;50.842;4.386;2022-12-29T06:03:18;10.50;99.90
22526;DHT22;11429;50.842;4.386;2022-12-29T06:05:47;10.60;99.90
22526;DHT22;11429;50.842;4.386;2022-12-29T06:08:13;10.50;99.90
22526;DHT22;11429;50.842;4.386;2022-12-29T06:10:38;10.60;99.90
22526;DHT22;11429;50.842;4.386;2022-12-29T06:13:04;10.60;99.90
22526;DHT22;11429;50.842;4.386;2022-12-29T06:15:32;10.60;99.90
22526;DHT22;11429;50.842;4.386;2022-12-29T06:17:57;10.70;99.90
22526;DHT22;11429;50.842;4.386;2022-12-29T06:20:23;10.60;99.90
22526;DHT22;11429;50.842;4.386;2022-12-29T06:22:49;10.50;99.90
22526;DHT22;11429;50.842;4.386;2022-12-29T06:25:15;10.60;99.90
22526;DHT22;11429;50.842;4.386;2022-12-29T06:27:41;10.50;99.90
22526;DHT22;11429;50.842;4.386;2022-12-29T06:30:08;10.50;99.90
22526;DHT22;11429;50.842;4.386;2022-12-29T06:32:34;10.50;99.90
22526;DHT22;11429;50.842;4.386;2022-12-29T06:35:00;10.60;99.90
22526;DHT22;11429;50.842;4.386;2022-12-29T06:37:26;10.60;99.90
22526;DHT22;11429;50.842;4.386;2022-12-29T06:39:52;10.60;99.90
22526;DHT22;11429;50.842;4.386;2022-12-29T06:42:18;10.60;99.90
22526;DHT22;11429;50.842;4.386;2022-12-29T06:44:43;10.80;99.90
22526;DHT22;11429;50.842;4.386;2022-12-29T06:47:09;10.90;99.90
22526;DHT22;11429;50.842;4.386;2022-12-29T06:49:35;10.90;99.90
22526;DHT22;11429;50.842;4.386;2022-12-29T06:52:25;10.90;99.90
22526;DHT22;11429;50.842;4.386;2022-12-29T06:54:51;10.90;99.90
22526;DHT22;11429;50.842;4.386;2022-12-29T06:57:17;10.90;99.90
22526;DHT22;11429;50.842;4.386;2022-12-29T06:59:43;10.90;99.90
22526;DHT22;11429;50.842;4.386;2022-12-29T07:02:11;10.90;99.90
22526;DHT22;11429;50.842;4.386;2022-12-29T07:04:37;10.90;99.90
22526;DHT22;11429;50.842;4.386;2022-12-29T07:07:02;10.80;99.90
22526;DHT22;11429;50.842;4.386;2022-12-29T07:09:28;10.80;99.90
22526;DHT22;11429;50.842;4.386;2022-12-29T07:11:54;10.80;99.90
22526;DHT22;11429;50.842;4.386;2022-12-29T07:14:20;10.90;99.90
22526;DHT22;11429;50.842;4.386;2022-12-29T07:16:48;10.90;99.90
22526;DHT22;11429;50.842;4.386;2022-12-29T07:19:14;10.90;99.90
22526;DHT22;11429;50.842;4.386;2022-12-29T07:21:40;10.80;99.90
22526;DHT22;11429;50.842;4.386;2022-12-29T07:24:07;10.70;99.90
22526;DHT22;11429;50.842;4.386;2022-12-29T07:26:32;10.80;99.90
22526;DHT22;11429;50.842;4.386;2022-12-29T07:29:00;10.90;99.90
22526;DHT22;11429;50.842;4.386;2022-12-29T07:31:26;10.90;99.90
22526;DHT22;11429;50.842;4.386;2022-12-29T07:33:52;10.90;99.90
22526;DHT22;11429;50.842;4.386;2022-12-29T07:36:17;10.80;99.90
22526;DHT22;11429;50.842;4.386;2022-12-29T07:38:43;10.80;99.90
22526;DHT22;11429;50.842;4.386;2022-12-29T07:41:09;10.80;99.90
22526;DHT22;11429;50.842;4.386;2022-12-29T07:43:35;10.80;99.90
22526;DHT22;11429;50.842;4.386;2022-12-29T07:46:00;10.80;99.90
22526;DHT22;11429;50.842;4.386;2022-12-29T07:48:26;10.90;99.90
22526;DHT22;11429;50.842;4.386;2022-12-29T07:50:52;10.90;99.90
22526;DHT22;11429;50.842;4.386;2022-12-29T07:53:18;10.90;99.90
22526;DHT22;11429;50.842;4.386;2022-12-29T07:55:44;10.90;99.90
22526;DHT22;11429;50.842;4.386;2022-12-29T07:58:09;10.80;99.90
22526;DHT22;11429;50.842;4.386;2022-12-29T08:00:35;10.80;99.90
22526;DHT22;11429;50.842;4.386;2022-12-29T08:03:01;10.80;99.90
22526;DHT22;11429;50.842;4.386;2022-12-29T08:05:27;10.80;99.90
22526;DHT22;11429;50.842;4.386;2022-12-29T08:07:53;10.80;99.90
22526;DHT22;11429;50.842;4.386;2022-12-29T08:10:18;10.80;99.90
22526;DHT22;11429;50.842;4.386;2022-12-29T08:12:44;10.80;99.90
22526;DHT22;11429;50.842;4.386;2022-12-29T08:15:11;10.80;99.90
22526;DHT22;11429;50.842;4.386;2022-12-29T08:17:37;10.70;99.90
22526;DHT22;11429;50.842;4.386;2022-12-29T08:20:04;10.70;99.90
22526;DHT22;11429;50.842;4.386;2022-12-29T08:22:32;10.80;99.90
22526;DHT22;11429;50.842;4.386;2022-12-29T08:24:58;10.90;99.90
22526;DHT22;11429;50.842;4.386;2022-12-29T08:27:24;10.90;99.90
22526;DHT22;11429;50.842;4.386;2022-12-29T08:29:50;10.80;99.90
22526;DHT22;11429;50.842;4.386;2022-12-29T08:32:16;10.70;99.90
22526;DHT22;11429;50.842;4.386;2022-12-29T08:34:42;10.80;99.90
22526;DHT22;11429;50.842;4.386;2022-12-29T08:37:07;10.80;99.90
22526;DHT22;11429;50.842;4.386;2022-12-29T08:39:36;10.80;99.90
22526;DHT22;11429;50.842;4.386;2022-12-29T08:42:08;10.90;99.90
22526;DHT22;11429;50.842;4.386;2022-12-29T08:44:33;10.90;99.90
22526;DHT22;11429;50.842;4.386;2022-12-29T08:46:59;10.80;99.90
22526;DHT22;11429;50.842;4.386;2022-12-29T08:49:25;10.80;99.90
22526;DHT22;11429;50.842;4.386;2022-12-29T08:51:50;10.90;99.90
22526;DHT22;11429;50.842;4.386;2022-12-29T08:54:17;10.90;99.90
22526;DHT22;11429;50.842;4.386;2022-12-29T08:56:43;10.90;99.90
22526;DHT22;11429;50.842;4.386;2022-12-29T08:59:10;11.00;99.90
22526;DHT22;11429;50.842;4.386;2022-12-29T09:01:36;11.00;99.90
22526;DHT22;11429;50.842;4.386;2022-12-29T09:04:05;11.00;99.90
22526;DHT22;11429;50.842;4.386;2022-12-29T09:06:32;11.00;99.90
22526;DHT22;11429;50.842;4.386;2022-12-29T09:08:57;11.00;99.90
22526;DHT22;11429;50.842;4.386;2022-12-29T09:11:27;10.90;99.90
22526;DHT22;11429;50.842;4.386;2022-12-29T09:13:53;10.80;99.90
22526;DHT22;11429;50.842;4.386;2022-12-29T09:16:22;10.80;99.90
22526;DHT22;11429;50.842;4.386;2022-12-29T09:18:49;10.90;99.90
22526;DHT22;11429;50.842;4.386;2022-12-29T09:21:15;10.90;99.90
22526;DHT22;11429;50.842;4.386;2022-12-29T09:23:40;11.00;99.90
22526;DHT22;11429;50.842;4.386;2022-12-29T09:26:22;10.90;99.90
22526;DHT22;11429;50.842;4.386;2022-12-29T09:28:47;11.00;99.90
22526;DHT22;11429;50.842;4.386;2022-12-29T09:31:13;10.90;99.90
22526;DHT22;11429;50.842;4.386;2022-12-29T09:33:40;10.90;99.90
22526;DHT22;11429;50.842;4.386;2022-12-29T09:36:06;10.90;99.90
22526;DHT22;11429;50.842;4.386;2022-12-29T09:38:32;11.10;99.90
22526;DHT22;11429;50.842;4.386;2022-12-29T09:44:30;11.30;99.90
22526;DHT22;11429;50.842;4.386;2022-12-29T09:47:11;11.40;99.90
22526;DHT22;11429;50.842;4.386;2022-12-29T09:50:11;11.20;99.90
22526;DHT22;11429;50.842;4.386;2022-12-29T09:55:57;11.40;99.90
22526;DHT22;11429;50.842;4.386;2022-12-29T09:58:55;11.60;99.90
22526;DHT22;11429;50.842;4.386;2022-12-29T10:03:56;11.60;99.90
22526;DHT22;11429;50.842;4.386;2022-12-29T10:12:12;11.80;99.90
22526;DHT22;11429;50.842;4.386;2022-12-29T10:17:48;11.70;99.90
22526;DHT22;11429;50.842;4.386;2022-12-29T10:20:28;11.50;99.90
22526;DHT22;11429;50.842;4.386;2022-12-29T10:29:22;11.70;99.90
22526;DHT22;11429;50.842;4.386;2022-12-29T10:35:11;11.70;99.90
22526;DHT22;11429;50.842;4.386;2022-12-29T10:40:45;11.70;99.90
22526;DHT22;11429;50.842;4.386;2022-12-29T10:43:29;11.70;99.90
22526;DHT22;11429;50.842;4.386;2022-12-29T10:45:59;11.60;99.90
22526;DHT22;11429;50.842;4.386;2022-12-29T10:48:33;11.70;99.90
22526;DHT22;11429;50.842;4.386;2022-12-29T10:51:01;11.90;99.90
22526;DHT22;11429;50.842;4.386;2022-12-29T10:53:35;11.80;99.90
22526;DHT22;11429;50.842;4.386;2022-12-29T10:56:09;11.60;99.90
22526;DHT22;11429;50.842;4.386;2022-12-29T10:58:39;11.80;99.90
22526;DHT22;11429;50.842;4.386;2022-12-29T11:01:09;11.80;99.90
22526;DHT22;11429;50.842;4.386;2022-12-29T11:03:48;12.00;99.90
22526;DHT22;11429;50.842;4.386;2022-12-29T11:06:18;12.10;99.90
22526;DHT22;11429;50.842;4.386;2022-12-29T11:08:57;12.10;99.90
22526;DHT22;11429;50.842;4.386;2022-12-29T11:11:27;12.10;99.90
22526;DHT22;11429;50.842;4.386;2022-12-29T11:14:17;11.90;99.90
22526;DHT22;11429;50.842;4.386;2022-12-29T11:16:44;11.80;99.90
22526;DHT22;11429;50.842;4.386;2022-12-29T11:19:21;11.80;99.90
22526;DHT22;11429;50.842;4.386;2022-12-29T11:21:47;12.00;99.90
22526;DHT22;11429;50.842;4.386;2022-12-29T11:24:28;12.20;99.90
22526;DHT22;11429;50.842;4.386;2022-12-29T11:27:10;12.40;99.90
22526;DHT22;11429;50.842;4.386;2022-12-29T11:29:41;12.40;99.90
22526;DHT22;11429;50.842;4.386;2022-12-29T11:32:19;12.30;99.90
22526;DHT22;11429;50.842;4.386;2022-12-29T11:34:45;11.80;99.90
22526;DHT22;11429;50.842;4.386;2022-12-29T11:37:11;11.80;99.90
22526;DHT22;11429;50.842;4.386;2022-12-29T11:42:52;11.60;99.90
22526;DHT22;11429;50.842;4.386;2022-12-29T11:47:54;11.40;99.90
22526;DHT22;11429;50.842;4.386;2022-12-29T11:50:30;11.50;99.90
22526;DHT22;11429;50.842;4.386;2022-12-29T11:53:03;11.50;99.90
22526;DHT22;11429;50.842;4.386;2022-12-29T11:55:32;11.60;99.90
22526;DHT22;11429;50.842;4.386;2022-12-29T11:58:00;11.40;99.90
22526;DHT22;11429;50.842;4.386;2022-12-29T12:00:28;11.30;99.90
22526;DHT22;11429;50.842;4.386;2022-12-29T12:05:58;11.10;99.90
22526;DHT22;11429;50.842;4.386;2022-12-29T12:08:53;11.30;99.90
22526;DHT22;11429;50.842;4.386;2022-12-29T12:14:41;11.30;99.90
22526;DHT22;11429;50.842;4.386;2022-12-29T12:17:16;11.30;99.90
22526;DHT22;11429;50.842;4.386;2022-12-29T12:19:45;11.20;99.90
22526;DHT22;11429;50.842;4.386;2022-12-29T12:22:31;11.30;99.90
22526;DHT22;11429;50.842;4.386;2022-12-29T12:25:03;11.30;99.90
22526;DHT22;11429;50.842;4.386;2022-12-29T12:27:41;11.30;99.90
22526;DHT22;11429;50.842;4.386;2022-12-29T12:32:54;11.40;99.90
22526;DHT22;11429;50.842;4.386;2022-12-29T12:48:47;11.40;99.90
22526;DHT22;11429;50.842;4.386;2022-12-29T12:54:12;11.30;99.90
22526;DHT22;11429;50.842;4.386;2022-12-29T12:59:19;11.20;99.90
22526;DHT22;11429;50.842;4.386;2022-12-29T13:05:32;11.20;99.90
22526;DHT22;11429;50.842;4.386;2022-12-29T13:08:26;11.30;99.90
22526;DHT22;11429;50.842;4.386;2022-12-29T13:19:11;11.40;99.90
22526;DHT22;11429;50.842;4.386;2022-12-29T13:22:07;11.40;99.90
22526;DHT22;11429;50.842;4.386;2022-12-29T13:24:44;11.40;99.90
22526;DHT22;11429;50.842;4.386;2022-12-29T13:27:17;11.30;99.90
22526;DHT22;11429;50.842;4.386;2022-12-29T13:30:03;11.30;99.90
22526;DHT22;11429;50.842;4.386;2022-12-29T13:32:50;11.40;99.90
22526;DHT22;11429;50.842;4.386;2022-12-29T13:38:20;11.40;99.90
22526;DHT22;11429;50.842;4.386;2022-12-29T13:40:55;11.30;99.90
22526;DHT22;11429;50.842;4.386;2022-12-29T13:43:22;11.30;99.90
22526;DHT22;11429;50.842;4.386;2022-12-29T13:45:59;11.00;99.90
22526;DHT22;11429;50.842;4.386;2022-12-29T13:48:48;11.00;99.90
22526;DHT22;11429;50.842;4.386;2022-12-29T13:51:15;11.20;99.90
22526;DHT22;11429;50.842;4.386;2022-12-29T13:54:09;11.20;99.90
22526;DHT22;11429;50.842;4.386;2022-12-29T13:57:08;11.10;99.90
22526;DHT22;11429;50.842;4.386;2022-12-29T14:04:57;11.10;99.90
22526;DHT22;11429;50.842;4.386;2022-12-29T14:07:23;11.20;99.90
22526;DHT22;11429;50.842;4.386;2022-12-29T14:09:51;11.30;99.90
22526;DHT22;11429;50.842;4.386;2022-12-29T14:17:40;10.90;99.90
22526;DHT22;11429;50.842;4.386;2022-12-29T14:20:27;10.80;99.90
22526;DHT22;11429;50.842;4.386;2022-12-29T14:28:44;11.00;99.90
22526;DHT22;11429;50.842;4.386;2022-12-29T14:36:36;11.10;99.90
22526;DHT22;11429;50.842;4.386;2022-12-29T14:39:04;11.10;99.90
22526;DHT22;11429;50.842;4.386;2022-12-29T14:41:34;11.00;99.90
22526;DHT22;11429;50.842;4.386;2022-12-29T14:44:18;10.90;99.90
22526;DHT22;11429;50.842;4.386;2022-12-29T14:49:22;11.00;99.90
22526;DHT22;11429;50.842;4.386;2022-12-29T14:51:52;10.70;99.90
22526;DHT22;11429;50.842;4.386;2022-12-29T14:54:41;10.40;99.90
22526;DHT22;11429;50.842;4.386;2022-12-29T14:57:13;10.20;99.90
22526;DHT22;11429;50.842;4.386;2022-12-29T14:59:39;10.10;99.90
22526;DHT22;11429;50.842;4.386;2022-12-29T15:02:17;10.10;99.90
22526;DHT22;11429;50.842;4.386;2022-12-29T15:04:44;10.20;99.90
22526;DHT22;11429;50.842;4.386;2022-12-29T15:07:12;10.10;99.90
22526;DHT22;11429;50.842;4.386;2022-12-29T15:09:45;10.00;99.90
22526;DHT22;11429;50.842;4.386;2022-12-29T15:12:30;10.10;99.90
22526;DHT22;11429;50.842;4.386;2022-12-29T15:14:59;9.70;99.90
22526;DHT22;11429;50.842;4.386;2022-12-29T15:17:33;9.30;99.90
22526;DHT22;11429;50.842;4.386;2022-12-29T15:20:03;9.30;99.90
22526;DHT22;11429;50.842;4.386;2022-12-29T15:22:43;9.30;99.90
22526;DHT22;11429;50.842;4.386;2022-12-29T15:25:15;9.20;99.90
22526;DHT22;11429;50.842;4.386;2022-12-29T15:27:40;9.20;99.90
22526;DHT22;11429;50.842;4.386;2022-12-29T15:30:12;9.10;99.90
22526;DHT22;11429;50.842;4.386;2022-12-29T15:32:44;9.10;99.90
22526;DHT22;11429;50.842;4.386;2022-12-29T15:37:52;8.80;99.90
22526;DHT22;11429;50.842;4.386;2022-12-29T15:40:23;8.80;99.90
22526;DHT22;11429;50.842;4.386;2022-12-29T15:45:33;8.80;99.90
22526;DHT22;11429;50.842;4.386;2022-12-29T15:47:59;8.90;99.90
22526;DHT22;11429;50.842;4.386;2022-12-29T15:50:33;8.80;99.90
22526;DHT22;11429;50.842;4.386;2022-12-29T15:53:00;9.10;99.90
22526;DHT22;11429;50.842;4.386;2022-12-29T15:55:28;9.20;99.90
22526;DHT22;11429;50.842;4.386;2022-12-29T15:57:57;9.20;99.90
22526;DHT22;11429;50.842;4.386;2022-12-29T16:02:55;9.00;99.90
22526;DHT22;11429;50.842;4.386;2022-12-29T16:05:22;9.00;99.90
22526;DHT22;11429;50.842;4.386;2022-12-29T16:07:53;9.00;99.90
22526;DHT22;11429;50.842;4.386;2022-12-29T16:10:31;9.00;99.90
22526;DHT22;11429;50.842;4.386;2022-12-29T16:13:19;8.90;99.90
22526;DHT22;11429;50.842;4.386;2022-12-29T16:15:48;8.90;99.90
22526;DHT22;11429;50.842;4.386;2022-12-29T16:18:30;8.90;99.90
22526;DHT22;11429;50.842;4.386;2022-12-29T16:20:58;8.90;99.90
22526;DHT22;11429;50.842;4.386;2022-12-29T16:23:26;8.80;99.90
22526;DHT22;11429;50.842;4.386;2022-12-29T16:25:53;8.80;99.90
22526;DHT22;11429;50.842;4.386;2022-12-29T16:28:40;8.80;99.90
22526;DHT22;11429;50.842;4.386;2022-12-29T16:31:55;8.80;99.90
22526;DHT22;11429;50.842;4.386;2022-12-29T16:34:33;8.90;99.90
22526;DHT22;11429;50.842;4.386;2022-12-29T16:37:30;9.00;99.90
22526;DHT22;11429;50.842;4.386;2022-12-29T16:42:49;9.00;99.90
22526;DHT22;11429;50.842;4.386;2022-12-29T16:50:28;8.90;99.90
22526;DHT22;11429;50.842;4.386;2022-12-29T16:52:54;8.90;99.90
22526;DHT22;11429;50.842;4.386;2022-12-29T16:55:20;8.80;99.90
22526;DHT22;11429;50.842;4.386;2022-12-29T16:57:48;8.90;99.90
22526;DHT22;11429;50.842;4.386;2022-12-29T17:00:27;8.90;99.90
22526;DHT22;11429;50.842;4.386;2022-12-29T17:02:56;9.00;99.90
22526;DHT22;11429;50.842;4.386;2022-12-29T17:05:22;8.80;99.90
22526;DHT22;11429;50.842;4.386;2022-12-29T17:07:48;8.70;99.90
22526;DHT22;11429;50.842;4.386;2022-12-29T17:10:14;8.60;99.90
22526;DHT22;11429;50.842;4.386;2022-12-29T17:12:43;8.60;99.90
22526;DHT22;11429;50.842;4.386;2022-12-29T17:15:26;8.70;99.90
22526;DHT22;11429;50.842;4.386;2022-12-29T17:17:55;8.80;99.90
22526;DHT22;11429;50.842;4.386;2022-12-29T17:20:23;8.80;99.90
22526;DHT22;11429;50.842;4.386;2022-12-29T17:22:50;8.90;99.90
22526;DHT22;11429;50.842;4.386;2022-12-29T17:25:36;8.90;99.90
22526;DHT22;11429;50.842;4.386;2022-12-29T17:28:03;9.00;99.90
22526;DHT22;11429;50.842;4.386;2022-12-29T17:30:34;9.00;99.90
22526;DHT22;11429;50.842;4.386;2022-12-29T17:33:04;9.00;99.90
22526;DHT22;11429;50.842;4.386;2022-12-29T17:35:30;9.10;99.90
22526;DHT22;11429;50.842;4.386;2022-12-29T17:37:56;9.00;99.90
22526;DHT22;11429;50.842;4.386;2022-12-29T17:40:25;9.10;99.90
22526;DHT22;11429;50.842;4.386;2022-12-29T17:42:53;9.10;99.90
22526;DHT22;11429;50.842;4.386;2022-12-29T17:45:24;9.10;99.90
22526;DHT22;11429;50.842;4.386;2022-12-29T17:47:50;9.10;99.90
22526;DHT22;11429;50.842;4.386;2022-12-29T17:50:23;9.10;99.90
22526;DHT22;11429;50.842;4.386;2022-12-29T17:53:02;9.00;99.90
22526;DHT22;11429;50.842;4.386;2022-12-29T17:55:29;9.00;99.90
22526;DHT22;11429;50.842;4.386;2022-12-29T17:57:55;8.90;99.90
22526;DHT22;11429;50.842;4.386;2022-12-29T18:00:26;8.70;99.90
22526;DHT22;11429;50.842;4.386;2022-12-29T18:02:53;8.60;99.90
22526;DHT22;11429;50.842;4.386;2022-12-29T18:05:27;8.60;99.90
22526;DHT22;11429;50.842;4.386;2022-12-29T18:07:58;8.60;99.90
22526;DHT22;11429;50.842;4.386;2022-12-29T18:10:26;8.50;99.90
22526;DHT22;11429;50.842;4.386;2022-12-29T18:12:54;8.50;99.90
22526;DHT22;11429;50.842;4.386;2022-12-29T18:15:31;8.50;99.90
22526;DHT22;11429;50.842;4.386;2022-12-29T18:18:08;8.50;99.90
22526;DHT22;11429;50.842;4.386;2022-12-29T18:20:34;8.50;99.90
22526;DHT22;11429;50.842;4.386;2022-12-29T18:23:00;8.40;99.90
22526;DHT22;11429;50.842;4.386;2022-12-29T18:25:56;8.50;99.90
22526;DHT22;11429;50.842;4.386;2022-12-29T18:28:24;8.50;99.90
22526;DHT22;11429;50.842;4.386;2022-12-29T18:30:50;8.50;99.90
22526;DHT22;11429;50.842;4.386;2022-12-29T18:33:18;8.40;99.90
22526;DHT22;11429;50.842;4.386;2022-12-29T18:35:47;8.50;99.90
22526;DHT22;11429;50.842;4.386;2022-12-29T18:38:14;8.60;99.90
22526;DHT22;11429;50.842;4.386;2022-12-29T18:40:40;8.60;99.90